createdAt,value
2018-03-30T00:04:04.503Z,8.13
2018-03-30T00:06:33.752Z,8.33
2018-03-30T00:09:11.842Z,8.63
2018-03-30T00:11:41.082Z,7.70
2018-03-30T00:14:17.667Z,8.30
2018-03-30T00:16:46.900Z,8.00
2018-03-30T00:19:16.184Z,7.63
2018-03-30T00:21:45.453Z,7.93
2018-03-30T00:24:14.782Z,7.90
2018-03-30T00:26:51.155Z,7.20
2018-03-30T00:29:26.880Z,8.07
2018-03-30T00:31:56.161Z,8.37
2018-03-30T00:34:25.443Z,8.17
2018-03-30T00:36:54.709Z,7.03
2018-03-30T00:39:24.072Z,7.20
2018-03-30T00:41:53.488Z,7.13
2018-03-30T00:44:30.421Z,7.00
2018-03-30T00:46:59.769Z,7.37
2018-03-30T00:49:29.163Z,7.23
2018-03-30T00:51:58.444Z,7.07
2018-03-30T00:54:27.691Z,7.83
2018-03-30T00:56:57.154Z,7.00
2018-03-30T00:59:26.463Z,8.43
2018-03-30T01:01:55.748Z,8.80
2018-03-30T01:04:25.216Z,7.67
2018-03-30T01:06:55.251Z,8.40
2018-03-30T01:09:24.547Z,8.30
2018-03-30T01:11:53.815Z,7.20
2018-03-30T01:14:23.854Z,7.80
2018-03-30T01:16:53.899Z,8.30
2018-03-30T01:19:23.182Z,7.70
2018-03-30T01:21:52.499Z,8.20
2018-03-30T01:24:22.554Z,8.53
2018-03-30T01:26:51.843Z,8.17
2018-03-30T01:29:21.128Z,7.90
2018-03-30T01:31:50.335Z,8.47
2018-03-30T01:34:19.591Z,8.57
2018-03-30T01:36:48.974Z,8.90
2018-03-30T01:39:18.952Z,8.50
2018-03-30T01:44:28.504Z,8.37
2018-03-30T01:46:57.805Z,7.47
2018-03-30T01:49:27.087Z,7.57
2018-03-30T01:51:56.396Z,7.70
2018-03-30T01:54:25.735Z,7.93
2018-03-30T01:56:55.013Z,7.13
2018-03-30T01:59:24.313Z,7.30
2018-03-30T02:01:53.556Z,7.30
2018-03-30T02:04:22.824Z,8.93
2018-03-30T02:06:52.851Z,8.47
2018-03-30T02:09:22.196Z,8.50
2018-03-30T02:11:52.167Z,9.60
2018-03-30T02:14:21.374Z,8.60
2018-03-30T02:16:50.623Z,6.70
2018-03-30T02:19:19.945Z,7.60
2018-03-30T02:21:49.964Z,7.57
2018-03-30T02:24:19.975Z,6.80
2018-03-30T02:26:49.244Z,8.57
2018-03-30T02:29:18.525Z,8.40
2018-03-30T02:31:47.833Z,8.33
2018-03-30T02:34:17.870Z,7.63
2018-03-30T02:36:47.247Z,7.17
2018-03-30T02:39:16.492Z,6.93
2018-03-30T02:41:45.768Z,8.30
2018-03-30T02:44:14.978Z,8.80
2018-03-30T02:46:45.016Z,8.13
2018-03-30T02:49:14.252Z,8.53
2018-03-30T02:51:43.538Z,8.17
2018-03-30T02:54:13.571Z,7.73
2018-03-30T02:56:43.725Z,8.00
2018-03-30T02:59:12.967Z,7.27
2018-03-30T03:01:42.194Z,7.63
2018-03-30T03:04:11.475Z,7.87
2018-03-30T03:06:42.879Z,8.10
2018-03-30T03:09:12.284Z,8.13
2018-03-30T03:11:42.297Z,7.97
2018-03-30T03:14:12.429Z,7.13
2018-03-30T03:16:41.916Z,7.70
2018-03-30T03:19:11.154Z,8.07
2018-03-30T03:21:41.212Z,8.23
2018-03-30T03:24:11.765Z,7.80
2018-03-30T03:26:40.963Z,7.90
2018-03-30T03:29:10.240Z,7.40
2018-03-30T03:31:39.549Z,7.23
2018-03-30T03:34:09.651Z,7.73
2018-03-30T03:36:38.940Z,7.20
2018-03-30T03:39:08.372Z,6.93
2018-03-30T03:41:37.632Z,7.00
2018-03-30T03:44:07.627Z,6.83
2018-03-30T03:46:36.964Z,7.40
2018-03-30T03:49:06.304Z,6.70
2018-03-30T03:51:36.546Z,7.17
2018-03-30T03:54:05.832Z,6.73
2018-03-30T03:56:35.118Z,7.00
2018-03-30T03:59:12.246Z,6.77
2018-03-30T04:01:41.540Z,6.80
2018-03-30T04:04:11.575Z,6.20
2018-03-30T04:06:40.882Z,5.83
2018-03-30T04:09:10.190Z,7.00
2018-03-30T04:11:46.414Z,6.73
2018-03-30T04:14:17.579Z,8.07
2018-03-30T04:16:47.638Z,7.40
2018-03-30T04:19:16.891Z,8.37
2018-03-30T04:21:46.158Z,7.50
2018-03-30T04:24:16.156Z,7.63
2018-03-30T04:26:46.153Z,7.03
2018-03-30T04:29:15.372Z,7.17
2018-03-30T04:31:44.702Z,7.47
2018-03-30T04:34:14.921Z,7.40
2018-03-30T04:36:44.137Z,7.57
2018-03-30T04:39:13.395Z,7.57
2018-03-30T04:41:43.462Z,7.63
2018-03-30T04:44:12.676Z,8.40
2018-03-30T04:46:42.013Z,7.57
2018-03-30T04:49:12.057Z,8.03
2018-03-30T04:51:41.347Z,7.67
2018-03-30T04:54:11.410Z,8.20
2018-03-30T04:59:21.530Z,7.37
2018-03-30T05:01:51.572Z,7.33
2018-03-30T05:04:21.597Z,8.10
2018-03-30T05:06:50.844Z,9.00
2018-03-30T05:09:20.044Z,7.63
2018-03-30T05:11:49.303Z,9.03
2018-03-30T05:14:18.626Z,8.63
2018-03-30T05:16:47.896Z,8.90
2018-03-30T05:19:17.173Z,8.47
2018-03-30T05:21:55.269Z,9.03
2018-03-30T05:24:24.532Z,7.97
2018-03-30T05:29:29.555Z,8.17
2018-03-30T05:31:58.837Z,8.57
2018-03-30T05:34:28.238Z,8.43
2018-03-30T05:36:57.565Z,7.30
2018-03-30T05:39:28.322Z,8.93
2018-03-30T05:41:58.328Z,8.13
2018-03-30T05:44:28.353Z,7.93
2018-03-30T05:46:57.959Z,8.70
2018-03-30T05:49:27.255Z,7.57
2018-03-30T05:51:56.517Z,7.80
2018-03-30T05:54:25.868Z,7.47
2018-03-30T05:56:55.180Z,7.63
2018-03-30T05:59:24.878Z,7.40
2018-03-30T06:01:55.862Z,8.53
2018-03-30T06:04:26.115Z,7.90
2018-03-30T06:06:57.133Z,7.90
2018-03-30T06:09:29.585Z,8.27
2018-03-30T06:12:02.482Z,7.67
2018-03-30T06:17:45.184Z,8.27
2018-03-30T06:20:15.235Z,8.00
2018-03-30T06:22:44.470Z,8.47
2018-03-30T06:25:13.669Z,9.07
2018-03-30T06:27:43.641Z,8.40
2018-03-30T06:30:12.865Z,8.80
2018-03-30T06:32:42.095Z,7.80
2018-03-30T06:35:32.606Z,8.87
2018-03-30T06:38:06.527Z,9.47
2018-03-30T06:40:35.738Z,9.00
2018-03-30T06:43:06.165Z,8.90
2018-03-30T06:45:57.001Z,10.77
2018-03-30T06:48:26.202Z,10.67
2018-03-30T06:50:55.404Z,11.20
2018-03-30T06:53:29.338Z,11.83
2018-03-30T06:55:58.536Z,11.60
2018-03-30T06:58:27.821Z,12.30
2018-03-30T07:00:57.019Z,11.60
2018-03-30T07:03:26.258Z,12.00
2018-03-30T07:06:05.986Z,12.03
2018-03-30T07:08:35.974Z,11.43
2018-03-30T07:11:05.274Z,11.40
2018-03-30T07:13:34.541Z,11.70
2018-03-30T07:16:07.500Z,12.70
2018-03-30T07:18:36.687Z,12.20
2018-03-30T07:21:31.201Z,11.80
2018-03-30T07:24:00.929Z,10.20
2018-03-30T07:26:30.315Z,10.97
2018-03-30T07:32:02.997Z,11.70
2018-03-30T07:34:35.720Z,10.83
2018-03-30T07:37:08.198Z,11.07
2018-03-30T07:39:42.387Z,9.93
2018-03-30T07:42:15.476Z,7.10
2018-03-30T07:44:59.737Z,7.90
2018-03-30T07:47:32.658Z,7.30
2018-03-30T07:50:06.811Z,6.83
2018-03-30T07:52:41.206Z,6.93
2018-03-30T07:58:29.164Z,6.03
2018-03-30T08:00:58.156Z,6.57
2018-03-30T08:03:27.298Z,6.63
2018-03-30T08:05:56.738Z,7.33
2018-03-30T08:08:26.321Z,6.60
2018-03-30T08:10:55.483Z,5.23
2018-03-30T08:13:24.636Z,5.53
2018-03-30T08:15:54.798Z,5.47
2018-03-30T08:18:24.004Z,4.60
2018-03-30T08:20:54.076Z,5.93
2018-03-30T08:23:23.289Z,5.10
2018-03-30T08:25:52.680Z,4.50
2018-03-30T08:28:27.581Z,5.00
2018-03-30T08:31:13.811Z,4.67
2018-03-30T08:33:43.145Z,5.17
2018-03-30T08:36:34.586Z,5.07
2018-03-30T08:39:04.581Z,5.17
2018-03-30T08:41:41.927Z,5.00
2018-03-30T08:44:34.871Z,5.07
2018-03-30T08:47:04.184Z,4.40
2018-03-30T08:49:33.428Z,5.00
2018-03-30T08:52:23.474Z,5.33
2018-03-30T08:54:52.940Z,4.70
2018-03-30T08:57:22.376Z,4.60
2018-03-30T08:59:51.721Z,4.87
2018-03-30T09:02:28.390Z,4.90
2018-03-30T09:05:02.360Z,5.10
2018-03-30T09:07:39.095Z,4.97
2018-03-30T09:10:21.110Z,4.97
2018-03-30T09:13:01.159Z,4.67
2018-03-30T09:15:46.710Z,4.70
2018-03-30T09:18:21.506Z,4.90
2018-03-30T09:20:57.087Z,4.27
2018-03-30T09:23:34.685Z,4.50
2018-03-30T09:26:11.763Z,4.10
2018-03-30T09:28:46.010Z,4.00
2018-03-30T09:31:19.625Z,3.47
2018-03-30T09:37:09.697Z,3.33
2018-03-30T09:39:45.408Z,3.40
2018-03-30T09:42:21.216Z,3.43
2018-03-30T09:44:51.561Z,3.70
2018-03-30T09:47:20.760Z,3.40
2018-03-30T09:49:49.971Z,3.07
2018-03-30T09:52:19.268Z,2.97
2018-03-30T09:54:48.567Z,3.03
2018-03-30T09:57:17.760Z,3.10
2018-03-30T09:59:47.017Z,2.97
2018-03-30T10:02:16.996Z,2.10
2018-03-30T10:04:46.341Z,2.20
2018-03-30T10:10:15.902Z,2.10
2018-03-30T10:12:45.095Z,2.40
2018-03-30T10:15:14.290Z,2.33
2018-03-30T10:17:43.522Z,2.17
2018-03-30T10:20:12.504Z,2.23
2018-03-30T10:22:41.791Z,1.90
2018-03-30T10:25:10.980Z,1.90
2018-03-30T10:27:40.168Z,1.73
2018-03-30T10:30:09.426Z,1.67
2018-03-30T10:32:38.640Z,1.50
2018-03-30T10:35:07.985Z,1.40
2018-03-30T10:37:37.272Z,1.27
2018-03-30T10:40:06.481Z,1.40
2018-03-30T10:42:35.733Z,1.40
2018-03-30T10:45:05.649Z,1.43
2018-03-30T10:47:35.666Z,1.40
2018-03-30T10:50:05.738Z,1.37
2018-03-30T10:52:35.234Z,1.47
2018-03-30T10:55:04.225Z,1.20
2018-03-30T10:57:33.216Z,1.50
2018-03-30T11:00:02.566Z,1.40
2018-03-30T11:02:31.978Z,1.47
2018-03-30T11:05:01.258Z,1.30
2018-03-30T11:07:30.543Z,1.50
2018-03-30T11:10:00.549Z,1.40
2018-03-30T11:12:30.508Z,1.27
2018-03-30T11:15:00.674Z,1.17
2018-03-30T11:17:29.974Z,1.60
2018-03-30T11:19:59.175Z,1.30
2018-03-30T11:22:32.545Z,1.40
2018-03-30T11:25:01.748Z,1.07
2018-03-30T11:27:31.023Z,1.23
2018-03-30T11:30:00.322Z,1.30
2018-03-30T11:32:30.389Z,1.07
2018-03-30T11:34:59.611Z,1.20
2018-03-30T11:37:28.984Z,1.20
2018-03-30T11:40:11.348Z,1.00
2018-03-30T11:42:40.534Z,1.20
2018-03-30T11:45:10.557Z,1.10
2018-03-30T11:47:39.816Z,1.17
2018-03-30T11:50:09.216Z,1.20
2018-03-30T11:52:38.579Z,1.07
2018-03-30T11:55:07.910Z,1.10
2018-03-30T11:57:37.074Z,1.00
2018-03-30T12:00:06.406Z,1.10
2018-03-30T12:02:35.606Z,1.10
2018-03-30T12:05:04.793Z,1.00
2018-03-30T12:07:33.995Z,1.30
2018-03-30T12:10:03.166Z,1.40
2018-03-30T12:12:32.397Z,1.20
2018-03-30T12:15:02.817Z,1.37
2018-03-30T12:17:32.024Z,1.40
2018-03-30T12:20:01.321Z,1.27
2018-03-30T12:22:30.304Z,1.03
2018-03-30T12:24:59.305Z,1.10
2018-03-30T12:27:28.275Z,1.40
2018-03-30T12:29:57.495Z,1.40
2018-03-30T12:32:26.805Z,1.40
2018-03-30T12:34:55.936Z,1.17
2018-03-30T12:37:25.215Z,1.10
2018-03-30T12:39:54.491Z,1.10
2018-03-30T12:45:41.836Z,1.10
2018-03-30T12:48:11.133Z,1.10
2018-03-30T12:50:40.445Z,1.00
2018-03-30T12:53:09.840Z,0.70
2018-03-30T12:55:39.046Z,1.13
2018-03-30T12:58:08.169Z,1.03
2018-03-30T13:00:37.386Z,0.90
2018-03-30T13:03:06.634Z,0.87
2018-03-30T13:05:35.929Z,1.00
2018-03-30T13:08:05.115Z,1.10
2018-03-30T13:10:34.436Z,1.00
2018-03-30T13:13:03.835Z,1.00
2018-03-30T13:15:33.041Z,1.17
2018-03-30T13:18:02.326Z,1.10
2018-03-30T13:20:31.553Z,1.30
2018-03-30T13:23:00.749Z,1.43
2018-03-30T13:25:30.036Z,1.40
2018-03-30T13:27:59.320Z,1.30
2018-03-30T13:30:28.567Z,1.13
2018-03-30T13:32:57.818Z,1.30
2018-03-30T13:35:27.067Z,1.30
2018-03-30T13:37:57.271Z,1.37
2018-03-30T13:40:26.542Z,1.40
2018-03-30T13:42:55.841Z,1.13
2018-03-30T13:45:25.608Z,1.10
2018-03-30T13:47:55.055Z,1.00
2018-03-30T13:53:26.592Z,1.20
2018-03-30T13:56:02.434Z,1.10
2018-03-30T13:58:35.319Z,1.57
2018-03-30T14:01:06.849Z,1.43
2018-03-30T14:03:38.896Z,1.40
2018-03-30T14:06:10.224Z,1.50
2018-03-30T14:08:46.285Z,1.50
2018-03-30T14:11:17.228Z,1.70
2018-03-30T14:13:46.619Z,1.53
2018-03-30T14:16:16.641Z,1.40
2018-03-30T14:18:52.302Z,1.37
2018-03-30T14:21:23.436Z,1.70
2018-03-30T14:23:53.256Z,1.47
2018-03-30T14:26:23.470Z,1.60
2018-03-30T14:28:54.443Z,1.43
2018-03-30T14:31:29.437Z,1.40
2018-03-30T14:34:01.410Z,1.60
2018-03-30T14:36:37.071Z,1.50
2018-03-30T14:39:17.741Z,1.70
2018-03-30T14:44:59.329Z,1.50
2018-03-30T14:50:38.981Z,1.63
2018-03-30T14:53:31.859Z,1.20
2018-03-30T14:56:17.786Z,1.27
2018-03-30T14:59:05.665Z,1.20
2018-03-30T15:01:35.678Z,1.07
2018-03-30T15:04:17.582Z,1.10
2018-03-30T15:07:09.976Z,1.20
2018-03-30T15:09:40.808Z,1.20
2018-03-30T15:12:12.879Z,1.30
2018-03-30T15:14:45.429Z,1.17
2018-03-30T15:17:19.971Z,1.43
2018-03-30T15:19:51.081Z,1.30
2018-03-30T15:22:25.886Z,1.20
2018-03-30T15:24:57.039Z,1.33
2018-03-30T15:27:29.821Z,1.20
2018-03-30T15:30:00.749Z,1.30
2018-03-30T15:32:37.575Z,1.13
2018-03-30T15:35:08.464Z,1.40
2018-03-30T15:37:37.662Z,1.30
2018-03-30T15:40:12.651Z,1.33
2018-03-30T15:45:56.933Z,1.10
2018-03-30T15:48:27.950Z,1.37
2018-03-30T15:51:04.902Z,1.10
2018-03-30T15:53:33.526Z,1.00
2018-03-30T15:56:04.535Z,0.90
2018-03-30T15:58:33.825Z,1.10
2018-03-30T16:01:03.878Z,1.07
2018-03-30T16:03:33.817Z,1.07
2018-03-30T16:06:03.156Z,1.20
2018-03-30T16:08:32.174Z,0.90
2018-03-30T16:11:06.768Z,1.00
2018-03-30T16:13:36.152Z,0.90
2018-03-30T16:16:06.104Z,1.00
2018-03-30T16:18:51.504Z,1.00
2018-03-30T16:21:20.966Z,0.90
2018-03-30T16:23:49.930Z,1.00
2018-03-30T16:26:18.596Z,0.90
2018-03-30T16:28:47.285Z,1.30
2018-03-30T16:31:16.085Z,1.10
2018-03-30T16:33:44.793Z,1.20
2018-03-30T16:36:13.568Z,0.90
2018-03-30T16:38:42.334Z,1.03
2018-03-30T16:41:10.869Z,1.10
2018-03-30T16:43:39.774Z,0.97
2018-03-30T16:46:08.268Z,1.00
2018-03-30T16:48:36.665Z,0.80
2018-03-30T16:51:05.087Z,1.10
2018-03-30T16:53:34.297Z,1.70
2018-03-30T16:56:02.824Z,1.00
2018-03-30T16:58:31.400Z,0.93
2018-03-30T17:00:59.840Z,0.83
2018-03-30T17:03:28.317Z,1.00
2018-03-30T17:05:56.775Z,0.90
2018-03-30T17:08:26.098Z,0.90
2018-03-30T17:10:55.291Z,0.90
2018-03-30T17:13:24.491Z,1.00
2018-03-30T17:15:52.937Z,0.90
2018-03-30T17:18:21.390Z,1.10
2018-03-30T17:20:50.941Z,1.10
2018-03-30T17:23:20.223Z,0.90
2018-03-30T17:25:48.643Z,1.20
2018-03-30T17:28:17.834Z,1.20
2018-03-30T17:30:47.032Z,1.47
2018-03-30T17:33:27.313Z,1.47
2018-03-30T17:35:55.782Z,1.10
2018-03-30T17:38:24.191Z,1.40
2018-03-30T17:40:55.770Z,1.27
2018-03-30T17:46:18.277Z,1.30
2018-03-30T17:48:46.687Z,0.97
2018-03-30T17:51:15.140Z,1.20
2018-03-30T17:53:43.816Z,1.10
2018-03-30T17:56:12.822Z,1.23
2018-03-30T18:02:02.424Z,1.10
2018-03-30T18:04:30.871Z,1.30
2018-03-30T18:07:00.033Z,1.10
2018-03-30T18:09:28.554Z,1.10
2018-03-30T18:11:57.753Z,1.30
2018-03-30T18:14:26.291Z,1.50
2018-03-30T18:16:54.923Z,1.50
2018-03-30T18:19:24.230Z,1.80
2018-03-30T18:21:52.700Z,1.80
2018-03-30T18:24:21.749Z,1.70
2018-03-30T18:26:50.385Z,1.97
2018-03-30T18:29:18.832Z,1.70
2018-03-30T18:31:47.398Z,2.00
2018-03-30T18:34:15.912Z,2.20
2018-03-30T18:36:45.229Z,2.50
2018-03-30T18:39:14.424Z,2.30
2018-03-30T18:41:43.580Z,2.60
2018-03-30T18:44:12.025Z,2.53
2018-03-30T18:46:41.465Z,2.73
2018-03-30T18:49:09.891Z,2.63
2018-03-30T18:51:38.321Z,2.40
2018-03-30T18:54:06.710Z,2.77
2018-03-30T18:56:35.209Z,2.57
2018-03-30T19:02:33.416Z,2.47
2018-03-30T19:05:01.859Z,2.67
2018-03-30T19:07:30.294Z,2.50
2018-03-30T19:09:58.707Z,2.73
2018-03-30T19:12:27.143Z,2.73
2018-03-30T19:14:55.560Z,3.50
2018-03-30T19:17:24.009Z,3.20
2018-03-30T19:20:04.113Z,3.10
2018-03-30T19:22:32.524Z,3.30
2018-03-30T19:25:01.717Z,3.00
2018-03-30T19:27:30.760Z,3.13
2018-03-30T19:30:22.788Z,3.63
2018-03-30T19:32:51.275Z,3.70
2018-03-30T19:35:19.759Z,3.60
2018-03-30T19:37:48.190Z,3.80
2018-03-30T19:40:17.388Z,3.10
2018-03-30T19:42:46.636Z,3.20
2018-03-30T19:45:15.101Z,2.90
2018-03-30T19:47:43.555Z,3.10
2018-03-30T19:50:12.959Z,3.23
2018-03-30T19:52:42.371Z,3.20
2018-03-30T19:55:10.944Z,3.00
2018-03-30T19:57:40.155Z,3.00
2018-03-30T20:00:08.729Z,2.70
2018-03-30T20:02:37.310Z,3.30
2018-03-30T20:05:06.571Z,3.20
2018-03-30T20:07:35.091Z,2.70
2018-03-30T20:10:04.325Z,3.13
2018-03-30T20:12:32.835Z,3.50
2018-03-30T20:15:01.357Z,3.60
2018-03-30T20:17:30.765Z,3.20
2018-03-30T20:19:59.432Z,3.00
2018-03-30T20:22:28.645Z,3.43
2018-03-30T20:24:59.181Z,3.10
2018-03-30T20:27:27.648Z,3.23
2018-03-30T20:29:56.947Z,3.10
2018-03-30T20:32:26.104Z,2.93
2018-03-30T20:34:55.249Z,3.00
2018-03-30T20:37:23.750Z,3.10
2018-03-30T20:39:52.306Z,3.10
2018-03-30T20:42:21.630Z,3.07
2018-03-30T20:44:50.063Z,2.87
2018-03-30T20:47:19.350Z,2.97
2018-03-30T20:49:47.923Z,2.60
2018-03-30T20:52:16.507Z,2.83
2018-03-30T20:58:05.196Z,3.10
2018-03-30T21:00:33.707Z,2.87
2018-03-30T21:03:02.944Z,3.10
2018-03-30T21:05:31.551Z,3.30
2018-03-30T21:08:00.079Z,3.03
2018-03-30T21:10:28.666Z,2.83
2018-03-30T21:12:57.081Z,3.03
2018-03-30T21:15:25.582Z,3.13
2018-03-30T21:17:54.054Z,3.17
2018-03-30T21:20:22.689Z,3.30
2018-03-30T21:22:51.172Z,3.23
2018-03-30T21:25:19.596Z,3.13
2018-03-30T21:27:48.061Z,3.50
2018-03-30T21:30:16.574Z,3.40
2018-03-30T21:32:45.784Z,3.50
2018-03-30T21:35:14.290Z,3.30
2018-03-30T21:37:42.762Z,3.63
2018-03-30T21:40:11.197Z,3.63
2018-03-30T21:42:39.829Z,4.40
2018-03-30T21:45:12.649Z,4.10
2018-03-30T21:47:41.096Z,3.97
2018-03-30T21:50:09.608Z,3.83
2018-03-30T21:52:38.060Z,4.07
2018-03-30T21:55:06.481Z,4.20
2018-03-30T22:00:31.145Z,4.20
2018-03-30T22:02:59.582Z,3.47
2018-03-30T22:05:28.020Z,3.60
2018-03-30T22:07:56.408Z,4.47
2018-03-30T22:10:24.844Z,3.40
2018-03-30T22:12:54.092Z,4.03
2018-03-30T22:15:23.667Z,3.90
2018-03-30T22:17:52.358Z,3.53
2018-03-30T22:20:20.779Z,3.30
2018-03-30T22:22:50.260Z,4.03
2018-03-30T22:25:18.862Z,3.70
2018-03-30T22:27:47.378Z,3.90
2018-03-30T22:30:16.608Z,3.97
2018-03-30T22:32:45.037Z,4.03
2018-03-30T22:35:13.563Z,3.93
2018-03-30T22:37:42.730Z,4.03
2018-03-30T22:40:11.342Z,3.77
2018-03-30T22:42:40.747Z,6.77
2018-03-30T22:45:09.937Z,4.60
2018-03-30T22:47:39.346Z,3.90
2018-03-30T22:50:07.956Z,4.20
2018-03-30T22:52:36.515Z,3.73
2018-03-30T22:55:05.115Z,3.97
2018-03-30T22:57:33.539Z,3.87
2018-03-30T23:00:01.964Z,4.10
2018-03-30T23:02:31.088Z,4.33
2018-03-30T23:04:59.736Z,4.00
2018-03-30T23:07:28.417Z,4.60
2018-03-30T23:09:57.090Z,4.40
2018-03-30T23:12:25.608Z,4.50
2018-03-30T23:14:54.301Z,3.87
2018-03-30T23:17:23.110Z,4.00
2018-03-30T23:19:51.821Z,3.80
2018-03-30T23:22:20.311Z,3.80
2018-03-30T23:24:49.118Z,4.43
2018-03-30T23:27:17.910Z,3.83
2018-03-30T23:29:46.582Z,4.03
2018-03-30T23:32:15.225Z,3.80
2018-03-30T23:34:44.010Z,3.70
2018-03-30T23:37:12.684Z,3.97
2018-03-30T23:39:42.122Z,4.00
2018-03-30T23:42:10.840Z,4.00
2018-03-30T23:44:39.561Z,3.50
2018-03-30T23:47:08.982Z,4.00
2018-03-30T23:49:38.438Z,3.80
2018-03-30T23:52:07.171Z,4.10
2018-03-30T23:54:49.189Z,3.80
2018-03-30T23:57:17.845Z,4.40
2018-03-30T23:59:46.696Z,4.00
